createdAt,value
2024-02-11T00:00:12.067Z,9.40
2024-02-11T00:01:44.051Z,9.10
2024-02-11T00:03:27.125Z,9.10
2024-02-11T00:04:58.970Z,10.00
2024-02-11T00:06:30.967Z,9.20
2024-02-11T00:08:02.817Z,9.60
2024-02-11T00:09:34.649Z,9.60
2024-02-11T00:11:07.523Z,9.60
2024-02-11T00:12:40.273Z,9.20
2024-02-11T00:14:12.176Z,9.90
2024-02-11T00:15:45.010Z,9.50
2024-02-11T00:17:18.597Z,10.00
2024-02-11T00:18:50.852Z,9.80
2024-02-11T00:20:22.797Z,9.90
2024-02-11T00:21:54.731Z,9.60
2024-02-11T00:23:27.874Z,9.90
2024-02-11T00:24:59.620Z,10.50
2024-02-11T00:26:31.530Z,10.00
2024-02-11T00:28:03.451Z,9.60
2024-02-11T00:29:35.237Z,10.20
2024-02-11T00:31:07.297Z,10.30
2024-02-11T00:32:39.491Z,10.70
2024-02-11T00:34:11.495Z,10.40
2024-02-11T00:35:43.454Z,10.10
2024-02-11T00:37:16.069Z,10.50
2024-02-11T00:38:47.839Z,10.70
2024-02-11T00:40:22.955Z,10.80
2024-02-11T00:41:56.162Z,9.80
2024-02-11T00:43:28.177Z,10.10
2024-02-11T00:45:01.324Z,9.80
2024-02-11T00:46:33.064Z,10.30
2024-02-11T00:48:06.725Z,10.80
2024-02-11T00:49:38.552Z,10.20
2024-02-11T00:51:11.831Z,11.00
2024-02-11T00:52:45.698Z,10.70
2024-02-11T00:54:17.505Z,10.90
2024-02-11T00:55:49.437Z,10.70
2024-02-11T00:57:21.433Z,10.00
2024-02-11T00:58:53.240Z,9.90
2024-02-11T01:00:24.967Z,9.00
2024-02-11T01:01:56.818Z,9.70
2024-02-11T01:03:30.791Z,10.10
2024-02-11T01:05:03.435Z,9.50
2024-02-11T01:06:37.812Z,10.00
2024-02-11T01:08:13.368Z,9.80
2024-02-11T01:09:45.223Z,9.70
2024-02-11T01:13:28.587Z,10.50
2024-02-11T01:15:00.637Z,10.00
2024-02-11T01:16:32.757Z,9.90
2024-02-11T01:18:05.987Z,9.70
2024-02-11T01:19:39.748Z,9.30
2024-02-11T01:21:12.126Z,9.80
2024-02-11T01:22:47.972Z,9.60
2024-02-11T01:24:20.330Z,9.70
2024-02-11T01:25:53.160Z,9.90
2024-02-11T01:27:27.644Z,9.80
2024-02-11T01:28:59.985Z,10.40
2024-02-11T01:30:33.688Z,10.20
2024-02-11T01:32:10.432Z,10.00
2024-02-11T01:33:42.525Z,10.30
2024-02-11T01:35:15.501Z,10.70
2024-02-11T01:36:47.647Z,10.80
2024-02-11T01:38:19.907Z,11.10
2024-02-11T01:39:52.270Z,10.40
2024-02-11T01:41:24.346Z,10.60
2024-02-11T01:43:01.411Z,10.90
2024-02-11T01:44:33.983Z,11.00
2024-02-11T01:46:07.701Z,11.60
2024-02-11T01:47:40.180Z,10.70
2024-02-11T01:49:14.059Z,11.40
2024-02-11T01:50:48.598Z,11.40
2024-02-11T01:52:20.618Z,11.20
2024-02-11T01:53:52.641Z,10.80
2024-02-11T01:55:26.270Z,10.90
2024-02-11T01:57:02.301Z,10.70
2024-02-11T01:58:34.564Z,10.60
2024-02-11T02:00:09.715Z,10.20
2024-02-11T02:01:41.948Z,10.80
2024-02-11T02:03:15.590Z,10.20
2024-02-11T02:04:49.399Z,10.30
2024-02-11T02:06:24.593Z,10.80
2024-02-11T02:07:59.357Z,10.90
2024-02-11T02:09:34.374Z,10.30
2024-02-11T02:11:06.729Z,10.60
2024-02-11T02:12:44.256Z,10.10
2024-02-11T02:14:16.292Z,9.60
2024-02-11T02:15:48.946Z,10.70
2024-02-11T02:17:20.948Z,10.00
2024-02-11T02:18:56.426Z,10.60
2024-02-11T02:20:28.445Z,10.80
2024-02-11T02:22:00.461Z,9.60
2024-02-11T02:23:32.970Z,10.20
2024-02-11T02:25:06.196Z,10.50
2024-02-11T02:26:39.756Z,10.50
2024-02-11T02:28:11.706Z,9.70
2024-02-11T02:29:46.024Z,11.10
2024-02-11T02:31:17.984Z,10.50
2024-02-11T02:32:49.914Z,10.60
2024-02-11T02:34:23.158Z,10.60
2024-02-11T02:35:55.689Z,10.80
2024-02-11T02:37:30.258Z,10.80
2024-02-11T02:39:04.195Z,9.30
2024-02-11T02:40:36.274Z,10.90
2024-02-11T02:42:08.403Z,10.20
2024-02-11T02:43:40.535Z,10.80
2024-02-11T02:45:12.779Z,10.10
2024-02-11T02:46:44.715Z,11.00
2024-02-11T02:48:16.921Z,10.70
2024-02-11T02:49:49.134Z,11.50
2024-02-11T02:51:21.123Z,11.60
2024-02-11T02:52:54.269Z,11.40
2024-02-11T02:54:28.230Z,11.50
2024-02-11T02:56:00.229Z,11.30
2024-02-11T02:57:32.852Z,11.40
2024-02-11T02:59:10.942Z,11.00
2024-02-11T03:00:43.431Z,10.70
2024-02-11T03:02:15.830Z,11.20
2024-02-11T03:03:48.124Z,11.60
2024-02-11T03:05:24.217Z,10.80
2024-02-11T03:06:57.547Z,11.80
2024-02-11T03:08:29.675Z,10.90
2024-02-11T03:10:05.716Z,10.80
2024-02-11T03:11:40.864Z,10.00
2024-02-11T03:13:13.034Z,11.00
2024-02-11T03:14:45.649Z,10.60
2024-02-11T03:16:17.831Z,10.80
2024-02-11T03:17:50.176Z,11.10
2024-02-11T03:19:22.394Z,10.90
2024-02-11T03:20:54.418Z,11.50
2024-02-11T03:22:27.542Z,11.30
2024-02-11T03:24:00.160Z,11.00
2024-02-11T03:25:32.396Z,11.80
2024-02-11T03:27:05.068Z,10.90
2024-02-11T03:28:41.732Z,12.20
2024-02-11T03:30:18.596Z,13.10
2024-02-11T03:31:51.267Z,11.40
2024-02-11T03:33:23.411Z,10.80
2024-02-11T03:34:55.823Z,11.30
2024-02-11T03:36:28.263Z,11.10
2024-02-11T03:38:00.837Z,11.30
2024-02-11T03:39:32.804Z,11.00
2024-02-11T03:41:04.958Z,10.50
2024-02-11T03:42:37.880Z,11.40
2024-02-11T03:44:10.226Z,11.10
2024-02-11T03:45:42.269Z,11.20
2024-02-11T03:47:14.476Z,11.30
2024-02-11T03:48:46.711Z,11.30
2024-02-11T03:50:20.855Z,11.40
2024-02-11T03:51:53.126Z,11.90
2024-02-11T03:53:25.774Z,11.60
2024-02-11T03:54:58.087Z,10.80
2024-02-11T03:56:30.492Z,11.40
2024-02-11T03:58:03.112Z,11.60
2024-02-11T03:59:37.529Z,10.40
2024-02-11T04:01:09.642Z,11.30
2024-02-11T04:02:42.620Z,10.60
2024-02-11T04:04:14.642Z,11.70
2024-02-11T04:05:48.369Z,10.80
2024-02-11T04:07:21.365Z,10.60
2024-02-11T04:08:53.321Z,10.80
2024-02-11T04:10:29.902Z,10.90
2024-02-11T04:12:02.486Z,10.40
2024-02-11T04:13:34.663Z,11.30
2024-02-11T04:15:11.262Z,11.50
2024-02-11T04:16:46.869Z,11.40
2024-02-11T04:18:22.611Z,11.30
2024-02-11T04:19:54.735Z,11.40
2024-02-11T04:21:36.633Z,12.20
2024-02-11T04:23:10.695Z,11.10
2024-02-11T04:24:42.772Z,10.70
2024-02-11T04:26:15.530Z,10.70
2024-02-11T04:27:48.133Z,11.30
2024-02-11T04:29:25.369Z,11.20
2024-02-11T04:30:58.022Z,10.70
2024-02-11T04:32:30.083Z,11.30
2024-02-11T04:34:03.107Z,10.30
2024-02-11T04:35:37.405Z,11.20
2024-02-11T04:37:09.759Z,10.70
2024-02-11T04:38:41.681Z,11.40
2024-02-11T04:40:21.200Z,11.70
2024-02-11T04:41:54.819Z,10.70
2024-02-11T04:43:27.041Z,10.40
2024-02-11T04:45:00.184Z,11.10
2024-02-11T04:46:35.760Z,10.80
2024-02-11T04:48:10.768Z,10.40
2024-02-11T04:49:43.254Z,10.80
2024-02-11T04:51:16.522Z,11.10
2024-02-11T04:52:58.235Z,10.20
2024-02-11T04:54:30.256Z,10.40
2024-02-11T04:56:02.379Z,9.60
2024-02-11T04:57:40.284Z,9.70
2024-02-11T04:59:13.323Z,9.90
2024-02-11T05:00:55.122Z,9.70
2024-02-11T05:02:28.643Z,9.80
2024-02-11T05:04:02.738Z,9.70
2024-02-11T05:05:38.605Z,10.00
2024-02-11T05:07:11.198Z,9.10
2024-02-11T05:08:45.370Z,9.60
2024-02-11T05:10:17.586Z,9.90
2024-02-11T05:11:51.816Z,9.40
2024-02-11T05:13:25.480Z,9.30
2024-02-11T05:14:57.761Z,9.70
2024-02-11T05:16:30.615Z,9.70
2024-02-11T05:18:03.848Z,9.50
2024-02-11T05:19:35.846Z,8.90
2024-02-11T05:21:08.895Z,8.40
2024-02-11T05:22:45.660Z,9.00
2024-02-11T05:24:17.677Z,9.50
2024-02-11T05:25:51.824Z,9.60
2024-02-11T05:27:24.274Z,9.30
2024-02-11T05:28:57.941Z,9.00
2024-02-11T05:30:49.111Z,8.50
2024-02-11T05:32:22.927Z,9.20
2024-02-11T05:33:57.752Z,8.80
2024-02-11T05:35:36.089Z,8.60
2024-02-11T05:37:10.335Z,8.80
2024-02-11T05:38:42.329Z,8.60
2024-02-11T05:40:14.489Z,8.90
2024-02-11T05:41:46.433Z,8.60
2024-02-11T05:43:21.073Z,9.70
2024-02-11T05:44:53.782Z,8.10
2024-02-11T05:46:27.492Z,8.40
2024-02-11T05:47:59.847Z,9.10
2024-02-11T05:49:32.695Z,8.50
2024-02-11T05:51:05.107Z,8.70
2024-02-11T05:52:37.542Z,8.30
2024-02-11T05:54:10.076Z,8.70
2024-02-11T05:55:42.175Z,8.60
2024-02-11T05:57:14.869Z,8.30
2024-02-11T05:58:46.944Z,8.20
2024-02-11T06:00:34.015Z,8.60
2024-02-11T06:02:07.904Z,7.40
2024-02-11T06:03:41.592Z,7.10
2024-02-11T06:05:15.321Z,6.70
2024-02-11T06:06:47.613Z,6.60
2024-02-11T06:08:22.467Z,6.30
2024-02-11T06:09:55.598Z,6.40
2024-02-11T06:11:29.799Z,5.60
2024-02-11T06:13:03.801Z,5.60
2024-02-11T06:14:39.189Z,6.80
2024-02-11T06:16:12.882Z,6.10
2024-02-11T06:17:44.854Z,6.10
2024-02-11T06:19:17.050Z,6.10
2024-02-11T06:20:49.554Z,5.00
2024-02-11T06:22:23.004Z,6.00
2024-02-11T06:23:55.487Z,5.90
2024-02-11T06:25:27.430Z,5.40
2024-02-11T06:27:01.928Z,6.10
2024-02-11T06:28:35.727Z,6.00
2024-02-11T06:30:14.113Z,5.50
2024-02-11T06:31:55.608Z,5.60
2024-02-11T06:33:27.821Z,4.90
2024-02-11T06:35:00.510Z,5.20
2024-02-11T06:36:37.975Z,4.00
2024-02-11T06:38:10.029Z,4.50
2024-02-11T06:39:42.077Z,5.00
2024-02-11T06:41:14.100Z,4.70
2024-02-11T06:42:52.233Z,4.40
2024-02-11T06:44:31.542Z,3.90
2024-02-11T06:46:04.977Z,4.30
2024-02-11T06:47:38.167Z,4.30
2024-02-11T06:49:11.451Z,4.50
2024-02-11T06:50:45.071Z,4.10
2024-02-11T06:52:18.204Z,3.70
2024-02-11T06:53:50.756Z,4.20
2024-02-11T06:55:22.822Z,3.00
2024-02-11T06:56:55.381Z,1.90
2024-02-11T06:58:28.059Z,2.30
2024-02-11T07:00:00.479Z,2.00
2024-02-11T07:01:32.556Z,2.50
2024-02-11T07:03:05.553Z,2.20
2024-02-11T07:04:37.656Z,2.00
2024-02-11T07:06:12.637Z,2.30
2024-02-11T07:07:46.000Z,1.70
2024-02-11T07:09:19.942Z,1.80
2024-02-11T07:10:51.878Z,1.20
2024-02-11T07:12:23.783Z,1.50
2024-02-11T07:13:55.811Z,1.20
2024-02-11T07:15:28.165Z,1.50
2024-02-11T07:17:01.876Z,1.40
2024-02-11T07:18:35.321Z,1.70
2024-02-11T07:20:10.191Z,1.10
2024-02-11T07:21:43.443Z,1.40
2024-02-11T07:23:16.615Z,1.00
2024-02-11T07:24:48.926Z,1.20
2024-02-11T07:26:21.385Z,1.20
2024-02-11T07:27:53.392Z,2.10
2024-02-11T07:29:31.614Z,2.20
2024-02-11T07:31:03.944Z,2.60
2024-02-11T07:32:36.125Z,3.00
2024-02-11T07:34:08.454Z,3.50
2024-02-11T07:35:40.607Z,3.50
2024-02-11T07:37:12.978Z,3.60
2024-02-11T07:38:48.288Z,4.10
2024-02-11T07:40:22.304Z,3.30
2024-02-11T07:41:55.486Z,3.80
2024-02-11T07:43:27.971Z,4.00
2024-02-11T07:45:01.851Z,4.00
2024-02-11T07:46:33.794Z,3.90
2024-02-11T07:48:09.217Z,4.00
2024-02-11T07:49:41.248Z,3.80
2024-02-11T07:51:23.647Z,4.00
2024-02-11T07:52:57.244Z,3.30
2024-02-11T07:54:29.164Z,2.70
2024-02-11T07:56:07.879Z,2.60
2024-02-11T07:57:40.089Z,2.90
2024-02-11T07:59:15.960Z,2.80
2024-02-11T08:00:48.099Z,2.80
2024-02-11T08:02:20.403Z,2.70
2024-02-11T08:03:54.326Z,2.80
2024-02-11T08:05:26.593Z,2.80
2024-02-11T08:06:58.546Z,2.60
2024-02-11T08:08:30.589Z,2.30
2024-02-11T08:10:03.770Z,2.30
2024-02-11T08:11:35.837Z,2.70
2024-02-11T08:13:10.680Z,2.80
2024-02-11T08:14:42.461Z,2.80
2024-02-11T08:16:14.509Z,3.00
2024-02-11T08:17:46.350Z,2.00
2024-02-11T08:19:18.288Z,2.70
2024-02-11T08:20:50.205Z,2.10
2024-02-11T08:22:22.274Z,2.10
2024-02-11T08:23:56.088Z,2.30
2024-02-11T08:25:28.187Z,2.20
2024-02-11T08:27:00.256Z,2.10
2024-02-11T08:28:32.203Z,1.70
2024-02-11T08:30:05.392Z,1.90
2024-02-11T08:31:37.294Z,1.80
2024-02-11T08:33:11.024Z,1.70
2024-02-11T08:34:42.940Z,1.70
2024-02-11T08:36:16.680Z,1.60
2024-02-11T08:37:48.910Z,1.70
2024-02-11T08:39:20.745Z,1.70
2024-02-11T08:40:52.856Z,2.00
2024-02-11T08:42:26.276Z,1.70
2024-02-11T08:43:58.117Z,1.90
2024-02-11T08:45:30.224Z,1.80
2024-02-11T08:47:03.509Z,1.90
2024-02-11T08:48:35.882Z,1.80
2024-02-11T08:50:12.266Z,2.50
2024-02-11T08:51:46.707Z,2.10
2024-02-11T08:53:18.562Z,2.10
2024-02-11T08:54:51.032Z,2.00
2024-02-11T08:56:23.050Z,2.10
2024-02-11T08:57:54.875Z,2.30
2024-02-11T08:59:26.801Z,2.30
2024-02-11T09:01:00.578Z,2.30
2024-02-11T09:02:32.869Z,2.90
2024-02-11T09:04:06.011Z,2.40
2024-02-11T09:05:37.972Z,2.70
2024-02-11T09:07:11.501Z,2.90
2024-02-11T09:08:43.316Z,3.00
2024-02-11T09:10:16.126Z,2.60
2024-02-11T09:11:48.692Z,2.40
2024-02-11T09:13:20.555Z,2.90
2024-02-11T09:14:52.393Z,2.40
2024-02-11T09:16:26.895Z,2.70
2024-02-11T09:17:58.881Z,2.50
2024-02-11T09:19:31.320Z,2.70
2024-02-11T09:21:03.248Z,2.50
2024-02-11T09:22:35.391Z,2.60
2024-02-11T09:24:08.337Z,2.70
2024-02-11T09:25:43.726Z,2.80
2024-02-11T09:27:16.230Z,2.50
2024-02-11T09:28:48.697Z,2.30
2024-02-11T09:30:21.523Z,2.00
2024-02-11T09:31:53.930Z,2.40
2024-02-11T09:33:27.136Z,2.50
2024-02-11T09:34:59.300Z,2.50
2024-02-11T09:36:31.139Z,2.30
2024-02-11T09:38:02.992Z,2.30
2024-02-11T09:39:34.942Z,2.20
2024-02-11T09:41:08.309Z,2.40
2024-02-11T09:42:40.574Z,2.50
2024-02-11T09:44:26.804Z,2.70
2024-02-11T09:46:02.403Z,2.20
2024-02-11T09:47:38.547Z,3.00
2024-02-11T09:49:23.436Z,2.90
2024-02-11T09:50:59.129Z,2.70
2024-02-11T09:52:31.080Z,2.60
2024-02-11T09:54:05.784Z,2.40
2024-02-11T09:55:40.461Z,2.50
2024-02-11T09:57:12.954Z,2.90
2024-02-11T09:58:44.788Z,2.50
2024-02-11T10:00:19.133Z,2.30
2024-02-11T10:01:51.020Z,2.60
2024-02-11T10:03:28.720Z,2.10
2024-02-11T10:05:10.486Z,2.70
2024-02-11T10:06:45.661Z,2.50
2024-02-11T10:08:18.728Z,2.60
2024-02-11T10:09:51.648Z,2.60
2024-02-11T10:11:27.109Z,2.30
2024-02-11T10:13:01.753Z,2.00
2024-02-11T10:14:35.731Z,2.20
2024-02-11T10:16:09.261Z,3.10
2024-02-11T10:17:43.061Z,2.70
2024-02-11T10:19:15.130Z,2.50
2024-02-11T10:20:48.449Z,2.90
2024-02-11T10:22:28.571Z,2.10
2024-02-11T10:24:03.236Z,2.40
2024-02-11T10:25:35.643Z,2.30
2024-02-11T10:27:09.039Z,2.50
2024-02-11T10:28:41.939Z,2.50
2024-02-11T10:30:14.872Z,2.80
2024-02-11T10:31:48.516Z,2.70
2024-02-11T10:33:20.882Z,2.80
2024-02-11T10:34:52.832Z,2.60
2024-02-11T10:36:26.399Z,3.20
2024-02-11T10:38:00.840Z,3.10
2024-02-11T10:39:32.927Z,2.70
2024-02-11T10:41:05.151Z,2.80
2024-02-11T10:42:39.128Z,3.00
2024-02-11T10:44:11.759Z,2.50
2024-02-11T10:45:43.635Z,2.70
2024-02-11T10:47:15.563Z,2.50
2024-02-11T10:48:48.323Z,3.10
2024-02-11T10:50:20.536Z,2.90
2024-02-11T10:52:03.990Z,2.90
2024-02-11T10:53:41.645Z,2.50
2024-02-11T10:55:16.387Z,2.90
2024-02-11T10:56:48.894Z,1.90
2024-02-11T10:58:30.619Z,2.30
2024-02-11T11:00:03.370Z,2.30
2024-02-11T11:01:39.397Z,2.50
2024-02-11T11:03:15.987Z,2.60
2024-02-11T11:12:57.681Z,2.50
2024-02-11T11:14:33.638Z,2.80
2024-02-11T11:16:06.379Z,3.40
2024-02-11T11:17:38.849Z,2.50
2024-02-11T11:19:16.805Z,2.60
2024-02-11T11:20:58.367Z,2.60
2024-02-11T11:22:30.301Z,2.40
2024-02-11T11:24:02.822Z,2.50
2024-02-11T11:25:37.660Z,2.30
2024-02-11T11:27:11.527Z,2.80
2024-02-11T11:28:43.609Z,2.30
2024-02-11T11:30:16.960Z,3.80
2024-02-11T11:31:49.811Z,2.80
2024-02-11T11:33:24.327Z,3.00
2024-02-11T11:34:56.444Z,3.00
2024-02-11T11:36:29.943Z,2.70
2024-02-11T11:38:04.272Z,2.80
2024-02-11T11:39:36.877Z,2.70
2024-02-11T11:41:10.907Z,2.30
2024-02-11T11:42:43.064Z,2.20
2024-02-11T11:44:23.428Z,2.80
2024-02-11T11:45:58.129Z,2.50
2024-02-11T11:47:30.437Z,2.40
2024-02-11T11:49:02.574Z,2.30
2024-02-11T11:50:34.529Z,2.20
2024-02-11T11:52:09.649Z,2.30
2024-02-11T11:53:45.666Z,2.40
2024-02-11T11:55:17.691Z,2.60
2024-02-11T11:56:57.216Z,2.80
2024-02-11T11:58:31.538Z,2.40
2024-02-11T12:00:04.690Z,2.30
2024-02-11T12:01:44.228Z,2.20
2024-02-11T12:03:16.344Z,2.00
2024-02-11T12:04:48.295Z,2.70
2024-02-11T12:06:24.095Z,1.80
2024-02-11T12:07:56.384Z,2.20
2024-02-11T12:09:29.557Z,2.00
2024-02-11T12:11:10.083Z,2.30
2024-02-11T12:12:42.254Z,1.90
2024-02-11T12:14:15.428Z,2.00
2024-02-11T12:15:48.084Z,1.50
2024-02-11T12:17:20.356Z,1.60
2024-02-11T12:18:52.349Z,1.80
2024-02-11T12:20:24.493Z,1.90
2024-02-11T12:21:56.474Z,1.80
2024-02-11T12:23:28.548Z,1.80
2024-02-11T12:25:00.528Z,1.60
2024-02-11T12:26:33.961Z,1.80
2024-02-11T12:28:10.480Z,2.30
2024-02-11T12:29:45.339Z,2.00
2024-02-11T12:31:17.991Z,1.90
2024-02-11T12:32:50.007Z,2.00
2024-02-11T12:34:25.237Z,1.40
2024-02-11T12:35:57.212Z,1.80
2024-02-11T12:37:36.747Z,1.70
2024-02-11T12:39:09.174Z,2.00
2024-02-11T12:40:41.926Z,1.70
2024-02-11T12:42:17.269Z,1.90
2024-02-11T12:43:49.990Z,1.90
2024-02-11T12:45:22.370Z,2.00
2024-02-11T12:46:54.192Z,1.80
2024-02-11T12:48:26.885Z,1.50
2024-02-11T12:49:59.303Z,2.20
2024-02-11T12:51:31.166Z,1.70
2024-02-11T12:53:03.301Z,1.70
2024-02-11T12:54:35.752Z,1.70
2024-02-11T12:56:12.080Z,1.70
2024-02-11T12:57:44.193Z,1.50
2024-02-11T12:59:16.167Z,1.90
2024-02-11T13:00:48.298Z,2.20
2024-02-11T13:02:20.792Z,1.80
2024-02-11T13:03:53.539Z,2.00
2024-02-11T13:05:27.908Z,1.70
2024-02-11T13:07:00.803Z,1.70
2024-02-11T13:08:37.174Z,1.30
2024-02-11T13:10:12.534Z,1.70
2024-02-11T13:11:45.318Z,1.40
2024-02-11T13:13:17.153Z,1.60
2024-02-11T13:14:49.050Z,1.80
2024-02-11T13:16:21.437Z,1.90
2024-02-11T13:17:53.532Z,1.80
2024-02-11T13:19:25.983Z,1.50
2024-02-11T13:20:59.400Z,1.70
2024-02-11T13:22:31.398Z,1.70
2024-02-11T13:24:03.211Z,1.80
2024-02-11T13:25:35.719Z,1.80
2024-02-11T13:27:07.670Z,1.60
2024-02-11T13:28:40.275Z,1.70
2024-02-11T13:30:12.929Z,1.70
2024-02-11T13:31:45.977Z,1.90
2024-02-11T13:33:18.669Z,1.40
2024-02-11T13:34:53.784Z,1.70
2024-02-11T13:36:28.371Z,1.80
2024-02-11T13:38:00.367Z,1.70
2024-02-11T13:39:33.188Z,1.50
2024-02-11T13:41:05.914Z,1.30
2024-02-11T13:42:38.083Z,1.50
2024-02-11T13:44:10.196Z,1.60
2024-02-11T13:45:43.601Z,1.50
2024-02-11T13:47:15.646Z,1.50
2024-02-11T13:48:49.198Z,2.00
2024-02-11T13:50:21.429Z,1.60
2024-02-11T13:51:53.546Z,1.50
2024-02-11T13:53:25.549Z,1.50
2024-02-11T13:54:57.460Z,1.30
2024-02-11T13:56:29.500Z,1.50
2024-02-11T13:58:01.429Z,1.20
2024-02-11T13:59:34.425Z,1.70
2024-02-11T14:01:07.360Z,1.30
2024-02-11T14:02:42.723Z,1.40
2024-02-11T14:04:14.647Z,1.60
2024-02-11T14:05:47.351Z,1.40
2024-02-11T14:07:19.548Z,1.40
2024-02-11T14:08:51.512Z,1.70
2024-02-11T14:10:23.448Z,1.60
2024-02-11T14:11:58.831Z,1.50
2024-02-11T14:13:32.526Z,1.60
2024-02-11T14:15:06.307Z,1.20
2024-02-11T14:16:39.013Z,1.20
2024-02-11T14:18:12.599Z,1.20
2024-02-11T14:19:44.983Z,1.50
2024-02-11T14:21:16.868Z,1.30
2024-02-11T14:22:50.802Z,1.40
2024-02-11T14:24:22.647Z,1.40
2024-02-11T14:25:55.346Z,1.50
2024-02-11T14:27:27.208Z,1.40
2024-02-11T14:28:59.145Z,1.40
2024-02-11T14:30:31.183Z,1.60
2024-02-11T14:32:06.426Z,1.60
2024-02-11T14:33:38.525Z,1.70
2024-02-11T14:35:13.317Z,1.50
2024-02-11T14:36:45.248Z,1.00
2024-02-11T14:38:17.152Z,1.40
2024-02-11T14:39:49.058Z,1.30
2024-02-11T14:41:24.119Z,1.40
2024-02-11T14:42:56.239Z,1.40
2024-02-11T14:44:28.236Z,1.10
2024-02-11T14:46:02.087Z,1.20
2024-02-11T14:47:34.935Z,1.00
2024-02-11T14:49:10.499Z,1.50
2024-02-11T14:50:42.658Z,1.00
2024-02-11T14:52:15.331Z,0.80
2024-02-11T14:53:47.874Z,1.40
2024-02-11T14:55:19.880Z,1.10
2024-02-11T14:56:53.427Z,0.80
2024-02-11T14:58:27.487Z,0.80
2024-02-11T14:59:59.564Z,0.90
2024-02-11T15:01:31.469Z,1.00
2024-02-11T15:03:04.917Z,0.90
2024-02-11T15:04:38.626Z,1.10
2024-02-11T15:06:14.194Z,0.70
2024-02-11T15:07:46.248Z,0.70
2024-02-11T15:09:19.556Z,0.90
2024-02-11T15:10:51.711Z,0.80
2024-02-11T15:12:27.730Z,1.10
2024-02-11T15:14:01.484Z,1.00
2024-02-11T15:15:33.812Z,2.20
2024-02-11T15:17:05.668Z,1.10
2024-02-11T15:18:38.040Z,1.40
2024-02-11T15:20:12.127Z,1.90
2024-02-11T15:21:45.255Z,2.80
2024-02-11T15:23:17.546Z,1.80
2024-02-11T15:24:50.027Z,1.40
2024-02-11T15:26:25.147Z,1.10
2024-02-11T15:27:57.767Z,1.00
2024-02-11T15:29:30.108Z,1.40
2024-02-11T15:31:02.858Z,1.10
2024-02-11T15:32:35.955Z,1.00
2024-02-11T15:34:09.097Z,1.50
2024-02-11T15:35:52.153Z,2.10
2024-02-11T15:37:28.334Z,2.00
2024-02-11T15:39:00.822Z,1.50
2024-02-11T15:40:33.188Z,1.00
2024-02-11T15:42:08.436Z,1.20
2024-02-11T15:43:40.927Z,1.10
2024-02-11T15:45:13.128Z,0.90
2024-02-11T15:46:45.124Z,0.80
2024-02-11T15:48:22.299Z,1.30
2024-02-11T15:49:54.864Z,1.70
2024-02-11T15:51:27.430Z,1.50
2024-02-11T15:53:01.487Z,1.20
2024-02-11T15:54:33.895Z,1.00
2024-02-11T15:56:06.641Z,1.00
2024-02-11T15:57:39.487Z,1.10
2024-02-11T15:59:12.592Z,0.80
2024-02-11T16:00:46.187Z,1.10
2024-02-11T16:02:18.965Z,1.20
2024-02-11T16:03:51.148Z,1.80
2024-02-11T16:05:26.193Z,1.40
2024-02-11T16:06:59.262Z,1.50
2024-02-11T16:08:34.408Z,0.80
2024-02-11T16:10:11.865Z,0.80
2024-02-11T16:11:43.767Z,1.10
2024-02-11T16:13:15.598Z,1.00
2024-02-11T16:14:47.758Z,0.90
2024-02-11T16:16:19.700Z,1.00
2024-02-11T16:17:51.631Z,0.80
2024-02-11T16:19:26.095Z,0.90
2024-02-11T16:20:59.730Z,1.00
2024-02-11T16:22:31.549Z,0.70
2024-02-11T16:24:03.665Z,0.90
2024-02-11T16:25:38.840Z,1.00
2024-02-11T16:27:12.447Z,0.80
2024-02-11T16:28:47.213Z,0.70
2024-02-11T16:30:20.520Z,1.00
2024-02-11T16:31:52.345Z,1.00
2024-02-11T16:33:25.794Z,1.40
2024-02-11T16:34:58.147Z,1.30
2024-02-11T16:36:30.254Z,1.60
2024-02-11T16:38:04.186Z,2.50
2024-02-11T16:39:36.952Z,4.40
2024-02-11T16:41:10.320Z,5.10
2024-02-11T16:42:43.167Z,2.40
2024-02-11T16:44:15.070Z,1.20
2024-02-11T16:45:48.480Z,1.30
2024-02-11T16:47:24.020Z,1.10
2024-02-11T16:48:56.584Z,1.10
2024-02-11T16:50:28.530Z,1.40
2024-02-11T16:52:00.493Z,1.00
2024-02-11T16:53:32.392Z,0.90
2024-02-11T16:55:05.585Z,0.60
2024-02-11T16:56:37.865Z,0.60
2024-02-11T16:58:10.992Z,0.70
2024-02-11T16:59:44.845Z,0.40
2024-02-11T17:01:16.664Z,0.60
2024-02-11T17:02:49.274Z,0.80
2024-02-11T17:04:21.257Z,1.30
2024-02-11T17:05:53.246Z,1.60
2024-02-11T17:07:25.742Z,2.30
2024-02-11T17:08:58.119Z,1.90
2024-02-11T17:10:30.142Z,0.90
2024-02-11T17:12:05.674Z,1.60
2024-02-11T17:13:40.105Z,2.10
2024-02-11T17:15:12.096Z,1.20
2024-02-11T17:16:44.596Z,1.20
2024-02-11T17:18:16.734Z,1.40
2024-02-11T17:19:50.699Z,2.00
2024-02-11T17:21:23.665Z,1.20
2024-02-11T17:22:57.390Z,0.70
2024-02-11T17:24:29.567Z,0.60
2024-02-11T17:26:02.110Z,0.60
2024-02-11T17:27:34.206Z,1.00
2024-02-11T17:29:06.350Z,0.90
2024-02-11T17:30:41.692Z,1.40
2024-02-11T17:32:25.382Z,2.00
2024-02-11T17:34:03.544Z,1.70
2024-02-11T17:35:35.678Z,2.60
2024-02-11T17:37:08.164Z,4.10
2024-02-11T17:38:40.237Z,3.10
2024-02-11T17:40:12.675Z,2.70
2024-02-11T17:41:47.210Z,4.20
2024-02-11T17:43:19.167Z,2.60
2024-02-11T17:44:52.121Z,2.70
2024-02-11T17:46:23.972Z,2.40
2024-02-11T17:47:56.160Z,2.60
2024-02-11T17:49:30.389Z,2.60
2024-02-11T17:51:02.706Z,2.40
2024-02-11T17:52:37.222Z,3.20
2024-02-11T17:54:14.647Z,3.80
2024-02-11T17:55:46.986Z,4.10
2024-02-11T17:57:20.904Z,3.90
2024-02-11T17:58:52.817Z,3.80
2024-02-11T18:00:24.915Z,4.00
2024-02-11T18:01:57.057Z,3.20
2024-02-11T18:03:29.385Z,2.80
2024-02-11T18:05:01.740Z,3.00
2024-02-11T18:06:36.392Z,2.80
2024-02-11T18:08:08.601Z,3.20
2024-02-11T18:09:40.714Z,2.70
2024-02-11T18:11:12.940Z,3.50
2024-02-11T18:12:45.676Z,2.20
2024-02-11T18:14:19.073Z,1.80
2024-02-11T18:15:51.817Z,2.20
2024-02-11T18:17:23.907Z,2.00
2024-02-11T18:18:58.015Z,2.00
2024-02-11T18:20:31.311Z,2.00
2024-02-11T18:22:05.317Z,1.90
2024-02-11T18:23:37.492Z,2.50
2024-02-11T18:25:11.398Z,2.80
2024-02-11T18:26:43.395Z,2.90
2024-02-11T18:28:15.721Z,3.70
2024-02-11T18:29:48.201Z,3.00
2024-02-11T18:31:21.077Z,4.00
2024-02-11T18:32:53.285Z,2.80
2024-02-11T18:34:25.363Z,3.60
2024-02-11T18:35:57.269Z,3.40
2024-02-11T18:37:29.307Z,2.50
2024-02-11T18:39:01.302Z,2.30
2024-02-11T18:40:33.682Z,2.30
2024-02-11T18:42:06.469Z,2.00
2024-02-11T18:43:38.353Z,2.40
2024-02-11T18:45:11.435Z,2.40
2024-02-11T18:46:44.432Z,2.50
2024-02-11T18:48:17.764Z,2.50
2024-02-11T18:49:49.701Z,3.30
2024-02-11T18:51:21.620Z,2.40
2024-02-11T18:52:55.888Z,2.20
2024-02-11T18:54:27.730Z,2.30
2024-02-11T18:56:00.101Z,2.50
2024-02-11T18:57:32.364Z,3.80
2024-02-11T18:59:09.194Z,4.30
2024-02-11T19:00:41.376Z,3.20
2024-02-11T19:02:13.677Z,3.10
2024-02-11T19:03:45.607Z,11.20
2024-02-11T19:05:17.971Z,7.20
2024-02-11T19:06:50.535Z,4.70
2024-02-11T19:08:22.462Z,4.80
2024-02-11T19:09:54.640Z,4.50
2024-02-11T19:11:26.926Z,3.60
2024-02-11T19:12:58.832Z,3.20
2024-02-11T19:14:30.880Z,3.60
2024-02-11T19:16:03.112Z,3.10
2024-02-11T19:17:35.173Z,3.30
2024-02-11T19:19:07.231Z,3.20
2024-02-11T19:20:39.256Z,3.00
2024-02-11T19:22:17.452Z,2.50
2024-02-11T19:23:50.091Z,2.40
2024-02-11T19:25:21.997Z,2.80
2024-02-11T19:26:53.951Z,2.70
2024-02-11T19:28:25.805Z,2.70
2024-02-11T19:29:57.614Z,2.30
2024-02-11T19:31:31.940Z,2.30
2024-02-11T19:33:04.470Z,2.30
2024-02-11T19:34:37.649Z,2.90
2024-02-11T19:36:10.053Z,3.30
2024-02-11T19:37:42.083Z,3.30
2024-02-11T19:39:14.006Z,3.30
2024-02-11T19:40:46.615Z,3.00
2024-02-11T19:42:20.542Z,2.80
2024-02-11T19:43:52.499Z,2.50
2024-02-11T19:45:25.641Z,2.50
2024-02-11T19:46:59.150Z,2.50
2024-02-11T19:48:33.303Z,2.70
2024-02-11T19:50:06.574Z,3.10
2024-02-11T19:51:38.511Z,3.40
2024-02-11T19:53:25.649Z,2.80
2024-02-11T19:55:05.789Z,3.90
2024-02-11T19:56:37.684Z,3.60
2024-02-11T19:58:14.349Z,3.30
2024-02-11T19:59:46.161Z,2.60
2024-02-11T20:01:18.095Z,2.30
2024-02-11T20:02:49.962Z,2.10
2024-02-11T20:04:23.717Z,2.50
2024-02-11T20:05:56.868Z,2.10
2024-02-11T20:07:30.063Z,2.50
2024-02-11T20:09:02.571Z,2.30
2024-02-11T20:10:35.290Z,2.80
2024-02-11T20:12:08.053Z,2.70
2024-02-11T20:13:40.521Z,2.20
2024-02-11T20:15:13.787Z,2.70
2024-02-11T20:16:47.405Z,2.40
2024-02-11T20:18:19.726Z,2.60
2024-02-11T20:19:52.695Z,2.30
2024-02-11T20:21:24.650Z,2.80
2024-02-11T20:22:56.557Z,2.70
2024-02-11T20:24:28.620Z,2.80
2024-02-11T20:26:00.503Z,2.70
2024-02-11T20:27:32.343Z,2.60
2024-02-11T20:29:04.258Z,2.60
2024-02-11T20:30:38.517Z,2.80
2024-02-11T20:32:10.516Z,2.60
2024-02-11T20:33:42.696Z,2.90
2024-02-11T20:35:15.883Z,2.80
2024-02-11T20:36:50.009Z,3.10
2024-02-11T20:38:23.342Z,3.60
2024-02-11T20:39:58.170Z,3.50
2024-02-11T20:41:30.110Z,8.30
2024-02-11T20:43:02.252Z,5.90
2024-02-11T20:44:37.211Z,3.60